createdAt,value
2023-02-20T00:01:03.542Z,6.00
2023-02-20T00:04:32.219Z,8.00
2023-02-20T00:08:25.412Z,6.00
2023-02-20T00:15:44.181Z,9.00
2023-02-20T00:18:56.661Z,6.00
2023-02-20T00:22:48.793Z,8.00
2023-02-20T00:26:37.325Z,8.00
2023-02-20T00:30:27.313Z,6.00
2023-02-20T00:34:16.828Z,6.00
2023-02-20T00:38:07.001Z,6.00
2023-02-20T00:41:32.194Z,8.00
2023-02-20T00:44:20.878Z,8.00
2023-02-20T00:47:49.607Z,8.00
2023-02-20T00:51:26.011Z,4.00
2023-02-20T00:55:30.516Z,7.00
2023-02-20T01:02:35.617Z,6.00
2023-02-20T01:06:24.503Z,5.50
2023-02-20T01:09:53.371Z,6.00
2023-02-20T01:13:42.938Z,4.00
2023-02-20T01:17:15.463Z,5.00
2023-02-20T01:20:44.716Z,8.00
2023-02-20T01:24:34.624Z,5.00
2023-02-20T01:28:25.547Z,5.00
2023-02-20T01:35:43.597Z,5.50
2023-02-20T01:43:34.016Z,6.00
2023-02-20T01:47:32.636Z,8.00
2023-02-20T01:51:22.009Z,6.00
2023-02-20T01:55:13.685Z,5.00
2023-02-20T02:05:23.348Z,6.00
2023-02-20T02:09:00.528Z,8.00
2023-02-20T02:12:15.044Z,5.00
2023-02-20T02:15:45.702Z,5.00
2023-02-20T02:19:00.253Z,4.50
2023-02-20T02:22:45.582Z,5.00
2023-02-20T02:26:57.145Z,4.00
2023-02-20T02:30:32.994Z,4.50
2023-02-20T02:33:21.576Z,2.00
2023-02-20T02:36:09.622Z,2.00
2023-02-20T02:39:03.769Z,5.00
2023-02-20T02:41:53.254Z,4.00
2023-02-20T02:45:12.452Z,4.00
2023-02-20T02:49:17.124Z,6.00
2023-02-20T02:53:09.156Z,5.00
2023-02-20T02:57:06.739Z,6.00
2023-02-20T03:00:38.680Z,8.00
2023-02-20T03:04:27.136Z,8.00
2023-02-20T03:07:41.741Z,8.00
2023-02-20T03:11:30.995Z,5.50
2023-02-20T03:15:11.270Z,8.00
2023-02-20T03:19:12.133Z,6.00
2023-02-20T03:23:05.679Z,7.00
2023-02-20T03:26:54.645Z,5.50
2023-02-20T03:30:23.524Z,5.00
2023-02-20T03:34:06.639Z,11.00
2023-02-20T03:37:59.250Z,8.00
2023-02-20T03:45:16.582Z,6.00
2023-02-20T03:48:02.276Z,5.00
2023-02-20T03:53:19.255Z,12.50
2023-02-20T03:55:52.129Z,12.00
2023-02-20T03:58:23.366Z,12.00
2023-02-20T04:01:51.943Z,15.00
2023-02-20T04:05:42.035Z,8.00
2023-02-20T04:08:17.915Z,4.50
2023-02-20T04:11:48.724Z,6.00
2023-02-20T04:14:21.608Z,5.00
2023-02-20T04:16:56.055Z,4.00
2023-02-20T04:20:24.213Z,7.00
2023-02-20T04:24:15.743Z,5.00
2023-02-20T04:27:31.316Z,4.00
2023-02-20T04:30:59.563Z,4.00
2023-02-20T04:34:43.966Z,4.00
2023-02-20T04:38:33.056Z,4.00
2023-02-20T04:42:22.620Z,6.00
2023-02-20T04:46:16.502Z,5.00
2023-02-20T04:50:07.995Z,12.00
2023-02-20T04:53:57.612Z,11.50
2023-02-20T05:04:58.171Z,9.00
2023-02-20T05:08:50.262Z,11.00
2023-02-20T05:12:40.520Z,12.00
2023-02-20T05:15:53.451Z,11.00
2023-02-20T05:22:06.004Z,13.50
2023-02-20T05:29:48.949Z,13.00
2023-02-20T05:32:54.616Z,11.00
2023-02-20T05:35:22.761Z,14.00
2023-02-20T05:37:50.789Z,17.00
2023-02-20T05:41:47.054Z,16.00
2023-02-20T05:44:58.178Z,14.50
2023-02-20T05:54:12.884Z,16.00
2023-02-20T05:56:45.052Z,19.00
2023-02-20T05:59:15.022Z,18.00
2023-02-20T06:01:43.285Z,18.50
2023-02-20T06:05:11.775Z,16.00
2023-02-20T06:09:00.136Z,16.00
2023-02-20T06:12:50.210Z,16.00
2023-02-20T06:16:07.323Z,16.00
2023-02-20T06:21:58.842Z,18.50
2023-02-20T06:25:14.260Z,21.00
2023-02-20T06:28:29.768Z,20.00
2023-02-20T06:32:12.882Z,13.00
2023-02-20T06:35:45.715Z,24.00
2023-02-20T06:39:15.674Z,18.00
2023-02-20T06:42:05.658Z,12.00
2023-02-20T06:45:32.646Z,15.00
2023-02-20T06:48:21.699Z,12.00
2023-02-20T06:50:49.774Z,17.00
2023-02-20T06:53:17.687Z,14.00
2023-02-20T06:55:54.814Z,17.00
2023-02-20T06:58:46.627Z,15.00
2023-02-20T07:01:27.297Z,16.00
2023-02-20T07:03:57.621Z,19.00
2023-02-20T07:06:26.568Z,18.00
2023-02-20T07:08:54.642Z,20.00
2023-02-20T07:12:03.950Z,22.00
2023-02-20T07:15:11.510Z,19.00
2023-02-20T07:18:12.277Z,15.50
2023-02-20T07:20:40.746Z,19.50
2023-02-20T07:23:31.720Z,16.00
2023-02-20T07:26:49.995Z,19.00
2023-02-20T07:30:03.320Z,16.00
2023-02-20T07:33:29.296Z,15.50
2023-02-20T07:36:27.294Z,13.00
2023-02-20T07:38:57.555Z,16.00
2023-02-20T07:41:32.353Z,18.00
2023-02-20T07:44:00.463Z,16.00
2023-02-20T07:46:28.710Z,13.00
2023-02-20T07:49:18.162Z,26.67
2023-02-20T07:52:08.090Z,23.50
2023-02-20T07:54:36.073Z,17.33
2023-02-20T07:57:04.179Z,16.00
2023-02-20T08:00:32.722Z,13.00
2023-02-20T08:03:46.541Z,14.00
2023-02-20T08:07:20.204Z,17.00
2023-02-20T08:10:52.188Z,13.00
2023-02-20T08:14:31.540Z,17.00
2023-02-20T08:17:49.513Z,16.00
2023-02-20T08:21:05.760Z,15.00
2023-02-20T08:24:16.616Z,15.50
2023-02-20T08:27:28.943Z,17.50
2023-02-20T08:30:58.533Z,17.00
2023-02-20T08:34:28.514Z,14.00
2023-02-20T08:38:05.212Z,17.50
2023-02-20T08:41:33.727Z,15.50
2023-02-20T08:45:03.060Z,14.00
2023-02-20T08:48:31.466Z,16.00
2023-02-20T08:57:51.591Z,19.00
2023-02-20T09:00:21.868Z,20.00
2023-02-20T09:03:11.978Z,19.00
2023-02-20T09:05:40.287Z,19.50
2023-02-20T09:08:08.510Z,17.00
2023-02-20T09:11:18.614Z,19.50
2023-02-20T09:13:49.700Z,19.00
2023-02-20T09:18:49.395Z,17.00
2023-02-20T09:21:58.277Z,15.00
2023-02-20T09:24:32.183Z,19.67
2023-02-20T09:27:02.048Z,18.50
2023-02-20T09:29:30.157Z,17.00
2023-02-20T09:32:47.251Z,18.00
2023-02-20T09:35:57.969Z,16.00
2023-02-20T09:39:49.581Z,13.00
2023-02-20T09:43:05.549Z,15.00
2023-02-20T09:47:00.413Z,19.00
2023-02-20T09:50:28.549Z,21.00
2023-02-20T09:54:14.132Z,19.00
2023-02-20T09:56:49.337Z,15.00
2023-02-20T09:59:29.931Z,20.00
2023-02-20T10:02:39.450Z,22.50
2023-02-20T10:05:34.894Z,18.00
2023-02-20T10:08:03.334Z,21.00
2023-02-20T10:10:39.119Z,18.00
2023-02-20T10:14:05.493Z,15.00
2023-02-20T10:17:31.697Z,15.00
2023-02-20T10:21:39.337Z,14.50
2023-02-20T10:25:32.040Z,12.33
2023-02-20T10:28:18.868Z,13.00
2023-02-20T10:34:11.591Z,13.00
2023-02-20T10:37:38.578Z,14.50
2023-02-20T10:41:07.063Z,13.50
2023-02-20T10:44:35.462Z,16.00
2023-02-20T10:48:12.823Z,17.00
2023-02-20T10:55:31.322Z,14.00
2023-02-20T10:58:42.396Z,14.50
2023-02-20T11:01:16.074Z,15.00
2023-02-20T11:04:30.452Z,13.00
2023-02-20T11:07:22.300Z,14.00
2023-02-20T11:09:50.636Z,15.00
2023-02-20T11:12:27.543Z,15.50
2023-02-20T11:15:38.766Z,15.00
2023-02-20T11:18:26.219Z,16.00
2023-02-20T11:20:56.630Z,12.00
2023-02-20T11:23:37.409Z,13.00
2023-02-20T11:29:17.531Z,15.00
2023-02-20T11:31:47.982Z,16.00
2023-02-20T11:34:38.362Z,14.00
2023-02-20T11:37:14.826Z,17.00
2023-02-20T11:40:46.628Z,13.00
2023-02-20T11:45:20.064Z,16.00
2023-02-20T12:13:38.742Z,21.00
2023-02-20T12:16:16.163Z,17.50
2023-02-20T12:19:09.768Z,18.00
2023-02-20T12:22:09.792Z,17.50
2023-02-20T12:25:06.257Z,15.00
2023-02-20T12:28:11.759Z,14.50
2023-02-20T12:31:07.670Z,17.00
2023-02-20T12:34:03.265Z,16.00
2023-02-20T12:36:38.135Z,15.00
2023-02-20T12:43:07.474Z,17.00
2023-02-20T12:46:30.787Z,18.00
2023-02-20T12:50:14.928Z,17.00
2023-02-20T12:53:24.149Z,17.00
2023-02-20T12:56:20.487Z,13.50
2023-02-20T12:58:55.737Z,20.00
2023-02-20T13:01:38.339Z,17.00
2023-02-20T13:05:03.504Z,17.33
2023-02-20T13:07:52.907Z,17.00
2023-02-20T13:10:25.384Z,16.00
2023-02-20T13:12:55.017Z,18.00
2023-02-20T13:16:26.630Z,16.50
2023-02-20T13:19:38.185Z,18.00
2023-02-20T13:22:07.378Z,18.00
2023-02-20T13:25:37.141Z,17.00
2023-02-20T13:29:18.285Z,18.00
2023-02-20T13:32:01.325Z,20.33
2023-02-20T13:34:36.851Z,15.00
2023-02-20T13:37:26.255Z,18.00
2023-02-20T13:39:54.479Z,15.33
2023-02-20T13:42:34.577Z,17.00
2023-02-20T13:45:03.394Z,18.50
2023-02-20T13:47:36.429Z,20.00
2023-02-20T13:50:28.482Z,20.00
2023-02-20T13:52:58.031Z,14.00
2023-02-20T13:56:05.850Z,18.00
2023-02-20T13:58:33.957Z,18.00
2023-02-20T14:01:02.018Z,17.00
2023-02-20T14:03:34.653Z,19.00
2023-02-20T14:06:06.435Z,18.00
2023-02-20T14:08:36.506Z,17.00
2023-02-20T14:11:07.411Z,18.00
2023-02-20T14:13:41.272Z,19.00
2023-02-20T14:17:25.110Z,15.50
2023-02-20T14:21:19.058Z,17.00
2023-02-20T14:23:49.825Z,15.00
2023-02-20T14:27:18.270Z,18.00
2023-02-20T14:31:10.522Z,17.00
2023-02-20T14:34:38.545Z,18.00
2023-02-20T14:38:09.963Z,19.00
2023-02-20T14:42:18.619Z,15.00
2023-02-20T14:44:57.024Z,17.50
2023-02-20T14:48:30.724Z,20.00
2023-02-20T14:51:24.440Z,15.67
2023-02-20T14:54:16.234Z,12.00
2023-02-20T14:56:45.596Z,17.00
2023-02-20T15:00:02.823Z,17.00
2023-02-20T15:02:34.521Z,24.00
2023-02-20T15:05:07.976Z,19.00
2023-02-20T15:07:39.933Z,20.50
2023-02-20T15:10:26.765Z,18.00
2023-02-20T15:13:06.555Z,17.00
2023-02-20T15:15:37.728Z,18.00
2023-02-20T15:20:39.967Z,13.00
2023-02-20T15:23:24.950Z,13.50
2023-02-20T15:25:53.060Z,10.00
2023-02-20T15:28:23.256Z,11.00
2023-02-20T15:31:09.682Z,13.00
2023-02-20T15:33:41.533Z,13.50
2023-02-20T15:36:14.935Z,11.00
2023-02-20T15:39:43.583Z,13.50
2023-02-20T15:42:12.995Z,13.00
2023-02-20T15:44:41.108Z,12.00
2023-02-20T15:47:53.131Z,13.00
2023-02-20T15:53:37.192Z,12.00
2023-02-20T15:56:07.518Z,9.00
2023-02-20T15:59:24.678Z,12.00
2023-02-20T16:04:21.428Z,12.00
2023-02-20T16:06:49.533Z,11.00
2023-02-20T16:09:57.842Z,11.00
2023-02-20T16:12:28.557Z,11.00
2023-02-20T16:14:57.888Z,12.00
2023-02-20T16:17:29.340Z,13.00
2023-02-20T16:19:57.493Z,9.00
2023-02-20T16:22:25.601Z,11.00
2023-02-20T16:24:53.640Z,9.00
2023-02-20T16:27:26.971Z,14.00
2023-02-20T16:29:57.042Z,12.00
2023-02-20T16:32:27.128Z,13.50
2023-02-20T16:34:57.881Z,9.50
2023-02-20T16:37:28.163Z,12.00
2023-02-20T16:39:56.267Z,11.00
2023-02-20T16:42:36.619Z,12.00
2023-02-20T16:45:15.097Z,13.00
2023-02-20T16:47:43.986Z,10.50
2023-02-20T16:51:08.810Z,8.00
2023-02-20T16:53:36.828Z,9.00
2023-02-20T16:56:04.982Z,13.00
2023-02-20T16:58:32.964Z,12.00
2023-02-20T17:01:01.184Z,9.50
2023-02-20T17:03:29.257Z,9.00
2023-02-20T17:06:05.451Z,8.00
2023-02-20T17:08:33.384Z,11.00
2023-02-20T17:11:01.486Z,12.00
2023-02-20T17:13:29.526Z,13.00
2023-02-20T17:15:57.532Z,14.00
2023-02-20T17:18:25.638Z,13.00
2023-02-20T17:21:33.894Z,9.00
2023-02-20T17:24:02.002Z,9.00
2023-02-20T17:26:30.365Z,9.00
2023-02-20T17:28:58.413Z,7.00
2023-02-20T17:31:26.842Z,10.00
2023-02-20T17:33:54.890Z,8.00
2023-02-20T17:36:22.971Z,13.00
2023-02-20T17:38:51.018Z,9.00
2023-02-20T17:41:59.107Z,10.00
2023-02-20T17:44:31.109Z,10.00
2023-02-20T17:47:01.341Z,11.00
2023-02-20T17:50:17.422Z,14.00
2023-02-20T17:53:05.540Z,11.00
2023-02-20T17:55:34.209Z,12.00
2023-02-20T17:58:35.936Z,11.00
2023-02-20T18:01:05.183Z,9.00
2023-02-20T18:03:33.617Z,9.00
2023-02-20T18:08:29.733Z,10.00
2023-02-20T18:13:26.122Z,9.00
2023-02-20T18:15:54.232Z,10.00
2023-02-20T18:18:22.638Z,12.00
2023-02-20T18:20:51.085Z,11.00
2023-02-20T18:23:19.212Z,9.00
2023-02-20T18:25:47.357Z,9.00
2023-02-20T18:28:15.404Z,9.00
2023-02-20T18:33:57.382Z,10.00
2023-02-20T18:36:26.071Z,9.00
2023-02-20T18:38:54.120Z,10.00
2023-02-20T18:41:22.276Z,9.00
2023-02-20T18:43:50.849Z,8.00
2023-02-20T18:46:28.182Z,8.50
2023-02-20T18:48:56.798Z,10.00
2023-02-20T18:51:39.429Z,10.00
2023-02-20T18:54:11.060Z,11.00
2023-02-20T18:56:39.272Z,9.00
2023-02-20T18:59:07.376Z,8.50
2023-02-20T19:01:42.028Z,8.00
2023-02-20T19:04:12.692Z,9.00
2023-02-20T19:06:44.039Z,8.00
2023-02-20T19:09:21.610Z,9.50
2023-02-20T19:11:57.152Z,10.00
2023-02-20T19:14:28.852Z,7.00
2023-02-20T19:16:59.836Z,9.50
2023-02-20T19:19:30.804Z,11.33
2023-02-20T19:21:59.125Z,9.00
2023-02-20T19:24:27.550Z,10.00
2023-02-20T19:26:55.636Z,10.00
2023-02-20T19:29:23.546Z,10.00
2023-02-20T19:31:51.797Z,9.00
2023-02-20T19:34:19.832Z,10.00
2023-02-20T19:36:47.922Z,9.67
2023-02-20T19:39:16.157Z,9.00
2023-02-20T19:41:48.874Z,10.00
2023-02-20T19:44:17.125Z,9.00
2023-02-20T19:46:45.530Z,11.00
2023-02-20T19:49:13.915Z,10.00
2023-02-20T19:51:49.544Z,9.50
2023-02-20T19:55:05.731Z,10.00
2023-02-20T19:57:33.763Z,9.00
2023-02-20T20:00:01.926Z,9.00
2023-02-20T20:02:40.313Z,8.00
2023-02-20T20:05:08.724Z,8.00
2023-02-20T20:07:36.729Z,8.00
2023-02-20T20:10:05.486Z,9.00
2023-02-20T20:12:48.710Z,10.00
2023-02-20T20:15:26.780Z,10.50
2023-02-20T20:17:57.666Z,12.50
2023-02-20T20:20:27.384Z,9.00
2023-02-20T20:22:57.964Z,9.00
2023-02-20T20:25:25.966Z,8.00
2023-02-20T20:27:55.047Z,12.00
2023-02-20T20:30:26.249Z,12.00
2023-02-20T20:32:56.727Z,20.00
2023-02-20T20:35:26.547Z,13.00
2023-02-20T20:38:08.802Z,10.00
2023-02-20T20:40:36.792Z,9.00
2023-02-20T20:43:05.194Z,8.00
2023-02-20T20:45:35.803Z,8.00
2023-02-20T20:48:28.368Z,8.67
2023-02-20T20:51:13.873Z,7.50
2023-02-20T20:54:05.232Z,8.00
2023-02-20T20:56:45.682Z,7.50
2023-02-20T20:59:14.462Z,7.00
2023-02-20T21:01:43.046Z,6.00
2023-02-20T21:04:11.603Z,6.00
2023-02-20T21:06:40.157Z,8.00
2023-02-20T21:09:08.256Z,7.67
2023-02-20T21:11:36.357Z,7.00
2023-02-20T21:14:04.369Z,7.00
2023-02-20T21:16:33.045Z,7.00
2023-02-20T21:19:01.153Z,4.00
2023-02-20T21:21:49.103Z,5.50
2023-02-20T21:24:17.250Z,7.00
2023-02-20T21:26:45.425Z,7.00
2023-02-20T21:29:13.386Z,4.00
2023-02-20T21:31:43.148Z,7.00
2023-02-20T21:34:12.459Z,4.67
2023-02-20T21:36:42.153Z,4.00
2023-02-20T21:39:10.754Z,5.00
2023-02-20T21:41:57.439Z,5.00
2023-02-20T21:44:29.262Z,4.00
2023-02-20T21:47:00.809Z,3.50
2023-02-20T21:49:30.605Z,2.00
2023-02-20T21:51:59.179Z,4.00
2023-02-20T21:54:32.191Z,5.00
2023-02-20T21:57:00.963Z,7.00
2023-02-20T21:59:29.272Z,7.00
2023-02-20T22:01:57.449Z,5.00
2023-02-20T22:04:26.099Z,6.00
2023-02-20T22:07:13.207Z,7.33
2023-02-20T22:09:59.625Z,6.00
2023-02-20T22:12:46.230Z,4.00
2023-02-20T22:15:33.268Z,5.50
2023-02-20T22:18:19.710Z,5.50
2023-02-20T22:21:08.168Z,7.00
2023-02-20T22:23:54.584Z,5.00
2023-02-20T22:26:49.822Z,4.00
2023-02-20T22:29:36.939Z,4.00
2023-02-20T22:32:23.532Z,3.00
2023-02-20T22:35:12.265Z,3.00
2023-02-20T22:38:02.922Z,4.00
2023-02-20T22:40:42.187Z,4.00
2023-02-20T22:43:32.600Z,3.50
2023-02-20T22:46:19.177Z,3.00
2023-02-20T22:49:06.962Z,4.00
2023-02-20T22:51:53.441Z,3.00
2023-02-20T22:54:41.945Z,4.00
2023-02-20T22:57:29.158Z,3.00
2023-02-20T23:00:16.345Z,3.00
2023-02-20T23:03:02.901Z,4.00
2023-02-20T23:05:49.675Z,4.00
2023-02-20T23:08:36.105Z,5.00
2023-02-20T23:11:22.626Z,4.00
2023-02-20T23:14:09.098Z,4.00
2023-02-20T23:16:55.917Z,7.50
2023-02-20T23:19:42.628Z,7.00
2023-02-20T23:22:28.964Z,4.00
2023-02-20T23:25:15.338Z,4.67
2023-02-20T23:28:01.911Z,4.00
2023-02-20T23:30:48.144Z,7.00
2023-02-20T23:33:34.493Z,6.00
2023-02-20T23:36:20.833Z,4.00
2023-02-20T23:39:09.785Z,4.00
2023-02-20T23:41:56.246Z,4.00
2023-02-20T23:44:42.839Z,4.00
2023-02-20T23:47:29.308Z,5.50
2023-02-20T23:50:15.598Z,3.00
2023-02-20T23:53:02.222Z,3.00
2023-02-20T23:55:48.521Z,4.00
2023-02-20T23:58:35.144Z,3.50
